Time;durP1;ratioP1;P1;durP2;ratioP2;P2;SDS_P1;SDS_P2;PMS_P1;PMS_P2;Temp;Humidity;BMP_temperature;BMP_pressure;BME280_temperature;BME280_humidity;BME280_pressure;Samples;Min_cycle;Max_cycle;Signal;HPM_P1;HPM_P2
2021/12/09 00:00:55;;;;;;;9.80;2.60;;;;;;;;;;4231268;28;20051;-82
2021/12/09 00:02:57;;;;;;;5.85;2.80;;;;;;;;;;4232352;28;20083;-82
2021/12/09 00:04:58;;;;;;;6.25;2.63;;;;;;;;;;4250752;27;20079;-82
2021/12/09 00:07:01;;;;;;;5.13;2.65;;;;;;;;;;4232394;28;20520;-84
2021/12/09 00:09:05;;;;;;;8.48;3.38;;;;;;;;;;4252353;27;20039;-82
2021/12/09 00:11:07;;;;;;;8.10;2.40;;;;;;;;;;4234381;28;20043;-81
2021/12/09 00:13:08;;;;;;;5.63;2.50;;;;;;;;;;4251477;28;20043;-81
2021/12/09 00:15:10;;;;;;;8.27;3.13;;;;;;;;;;4280359;27;20038;-81
2021/12/09 00:17:11;;;;;;;11.38;2.95;;;;;;;;;;4233497;28;20028;-82
2021/12/09 00:19:12;;;;;;;8.50;2.85;;;;;;;;;;4246890;28;20079;-81
2021/12/09 00:21:13;;;;;;;8.07;2.85;;;;;;;;;;4244482;28;20127;-82
2021/12/09 00:23:15;;;;;;;9.43;2.70;;;;;;;;;;4238991;28;20444;-82
2021/12/09 00:25:22;;;;;;;10.38;3.70;;;;;;;;;;4267691;27;20039;-82
2021/12/09 00:27:24;;;;;;;7.65;3.30;;;;;;;;;;4248761;28;20523;-82
2021/12/09 00:29:27;;;;;;;8.23;3.33;;;;;;;;;;4249066;28;20047;-82
2021/12/09 00:31:29;;;;;;;11.93;3.15;;;;;;;;;;4206523;27;1215071;-81
2021/12/09 00:33:31;;;;;;;8.90;3.17;;;;;;;;;;4250565;27;20047;-82
2021/12/09 00:35:42;;;;;;;6.90;2.65;;;;;;;;;;4234718;27;20534;-82
2021/12/09 00:37:57;;;;;;;15.43;3.22;;;;;;;;;;4232127;28;20051;-82
2021/12/09 00:40:01;;;;;;;11.63;3.20;;;;;;;;;;4232463;27;20052;-81
2021/12/09 00:42:04;;;;;;;6.50;2.50;;;;;;;;;;4243697;27;20032;-82
2021/12/09 00:44:05;;;;;;;6.30;3.20;;;;;;;;;;4230623;28;20077;-82
2021/12/09 00:46:07;;;;;;;14.70;3.00;;;;;;;;;;4232311;28;20050;-82
2021/12/09 00:48:08;;;;;;;8.55;2.70;;;;;;;;;;4230383;28;20050;-82
2021/12/09 00:50:10;;;;;;;10.10;3.08;;;;;;;;;;4231203;28;20031;-82
2021/12/09 00:52:13;;;;;;;5.05;2.50;;;;;;;;;;4231580;28;20134;-81
2021/12/09 00:54:15;;;;;;;7.60;3.30;;;;;;;;;;4214811;28;20059;-81
2021/12/09 00:56:17;;;;;;;11.25;4.35;;;;;;;;;;4243018;27;20350;-82
2021/12/09 00:58:19;;;;;;;5.60;2.97;;;;;;;;;;4244892;27;20415;-81
2021/12/09 01:00:21;;;;;;;5.32;3.10;;;;;;;;;;4231881;28;20043;-81
2021/12/09 01:02:22;;;;;;;10.05;3.40;;;;;;;;;;4245888;27;20479;-81
2021/12/09 01:04:24;;;;;;;7.45;2.47;;;;;;;;;;4242479;27;20491;-81
2021/12/09 01:06:26;;;;;;;7.55;3.10;;;;;;;;;;4231260;28;20082;-81
2021/12/09 01:08:27;;;;;;;7.85;3.03;;;;;;;;;;4232542;28;20043;-81
2021/12/09 01:10:28;;;;;;;8.15;3.30;;;;;;;;;;4230113;28;20090;-81
2021/12/09 01:12:30;;;;;;;10.65;3.15;;;;;;;;;;4231886;28;20044;-81
2021/12/09 01:14:32;;;;;;;8.27;3.40;;;;;;;;;;4231772;28;20048;-81
2021/12/09 01:16:33;;;;;;;8.40;3.10;;;;;;;;;;4231892;28;20112;-81
2021/12/09 01:18:36;;;;;;;10.55;3.28;;;;;;;;;;4232346;28;20055;-81
2021/12/09 01:20:38;;;;;;;8.18;3.60;;;;;;;;;;4242509;27;20047;-81
2021/12/09 01:22:42;;;;;;;9.60;3.13;;;;;;;;;;4239978;27;20461;-81
2021/12/09 01:24:46;;;;;;;7.18;3.08;;;;;;;;;;4213974;28;20644;-81
2021/12/09 01:26:49;;;;;;;7.15;3.63;;;;;;;;;;4231879;28;20503;-81
2021/12/09 01:28:56;;;;;;;5.97;2.80;;;;;;;;;;4231959;28;20589;-81
2021/12/09 01:31:03;;;;;;;12.02;3.38;;;;;;;;;;4230933;28;20453;-81
2021/12/09 01:33:06;;;;;;;8.05;3.17;;;;;;;;;;4231458;28;20047;-81
2021/12/09 01:35:10;;;;;;;11.75;4.28;;;;;;;;;;4231363;28;20056;-82
2021/12/09 01:37:12;;;;;;;6.95;3.55;;;;;;;;;;4231680;28;20039;-82
2021/12/09 01:39:14;;;;;;;8.52;3.33;;;;;;;;;;4231393;28;20043;-81
2021/12/09 01:41:16;;;;;;;9.65;3.20;;;;;;;;;;4231943;28;20074;-81
2021/12/09 01:43:18;;;;;;;8.25;3.95;;;;;;;;;;4233244;28;20392;-82
2021/12/09 01:45:19;;;;;;;8.23;3.55;;;;;;;;;;4231546;28;20407;-82
2021/12/09 01:47:21;;;;;;;9.68;3.42;;;;;;;;;;4231260;28;20498;-81
2021/12/09 01:49:27;;;;;;;11.27;5.15;;;;;;;;;;4231499;28;20051;-82
2021/12/09 01:51:29;;;;;;;14.43;4.47;;;;;;;;;;4232288;28;20126;-81
2021/12/09 01:53:30;;;;;;;8.73;3.90;;;;;;;;;;4247096;27;20035;-81
2021/12/09 01:55:33;;;;;;;9.55;3.95;;;;;;;;;;4248283;27;20050;-81
2021/12/09 01:57:35;;;;;;;8.15;3.97;;;;;;;;;;4247779;27;20691;-81
2021/12/09 01:59:36;;;;;;;9.73;3.78;;;;;;;;;;4249581;27;20047;-81
2021/12/09 02:01:37;;;;;;;7.25;3.70;;;;;;;;;;4248686;27;20050;-81
2021/12/09 02:03:38;;;;;;;10.32;3.33;;;;;;;;;;4248098;27;20070;-81
2021/12/09 02:05:41;;;;;;;7.90;3.70;;;;;;;;;;4248206;27;20047;-81
2021/12/09 02:07:42;;;;;;;12.65;3.75;;;;;;;;;;4250084;27;20042;-81
2021/12/09 02:09:43;;;;;;;7.60;3.42;;;;;;;;;;4249180;27;20039;-81
2021/12/09 02:11:46;;;;;;;10.98;4.03;;;;;;;;;;4230836;28;20104;-81
2021/12/09 02:13:51;;;;;;;11.73;4.40;;;;;;;;;;4248015;27;20039;-81
2021/12/09 02:15:55;;;;;;;8.98;4.18;;;;;;;;;;4240655;27;20412;-81
2021/12/09 02:17:57;;;;;;;8.48;4.68;;;;;;;;;;4230531;28;20147;-81
2021/12/09 02:20:00;;;;;;;12.35;4.25;;;;;;;;;;4214222;28;20103;-81
2021/12/09 02:22:01;;;;;;;14.43;4.13;;;;;;;;;;4230896;28;20071;-81
2021/12/09 02:24:06;;;;;;;11.82;4.60;;;;;;;;;;4231429;28;20509;-82
2021/12/09 02:26:08;;;;;;;10.60;4.43;;;;;;;;;;4232014;28;20187;-80
2021/12/09 02:28:09;;;;;;;10.90;4.40;;;;;;;;;;4232069;28;20051;-81
2021/12/09 02:30:11;;;;;;;13.50;4.53;;;;;;;;;;4236202;28;20093;-81
2021/12/09 02:32:12;;;;;;;9.40;4.30;;;;;;;;;;4230840;28;20210;-81
2021/12/09 02:34:14;;;;;;;10.40;3.72;;;;;;;;;;4231040;28;20408;-80
2021/12/09 02:36:17;;;;;;;9.60;4.32;;;;;;;;;;4213889;28;20051;-81
2021/12/09 02:38:18;;;;;;;17.77;4.80;;;;;;;;;;4249201;28;20464;-81
2021/12/09 02:40:20;;;;;;;10.93;4.10;;;;;;;;;;4230808;28;20047;-81
2021/12/09 02:42:24;;;;;;;10.40;5.15;;;;;;;;;;4229923;28;20121;-81
2021/12/09 02:44:27;;;;;;;14.45;4.60;;;;;;;;;;4230799;28;20566;-82
2021/12/09 02:46:29;;;;;;;9.02;4.65;;;;;;;;;;4249287;27;20526;-81
2021/12/09 02:48:31;;;;;;;13.05;5.40;;;;;;;;;;4213556;28;20055;-81
2021/12/09 02:50:33;;;;;;;11.35;4.20;;;;;;;;;;4248892;28;20506;-81
2021/12/09 02:52:35;;;;;;;13.00;4.60;;;;;;;;;;4248425;27;20047;-81
2021/12/09 02:54:36;;;;;;;13.73;4.68;;;;;;;;;;4230557;28;20062;-81
2021/12/09 02:56:38;;;;;;;10.98;4.45;;;;;;;;;;4213986;28;20122;-81
2021/12/09 02:58:40;;;;;;;15.80;4.55;;;;;;;;;;4231042;28;20531;-81
2021/12/09 03:01:03;;;;;;;11.18;4.30;;;;;;;;;;4230559;28;20097;-81
2021/12/09 03:03:05;;;;;;;9.15;3.90;;;;;;;;;;4213881;28;20059;-81
2021/12/09 03:05:07;;;;;;;9.52;4.63;;;;;;;;;;4213686;28;20408;-81
2021/12/09 03:07:14;;;;;;;9.10;4.03;;;;;;;;;;4230172;28;20047;-81
2021/12/09 03:09:17;;;;;;;10.52;4.55;;;;;;;;;;4230295;28;20118;-81
2021/12/09 03:11:21;;;;;;;10.80;4.93;;;;;;;;;;4213885;28;20121;-81
2021/12/09 03:13:23;;;;;;;15.50;4.18;;;;;;;;;;4230857;28;20116;-81
2021/12/09 03:15:26;;;;;;;14.18;4.15;;;;;;;;;;4230616;28;20506;-81
2021/12/09 03:17:28;;;;;;;8.70;3.83;;;;;;;;;;4230374;28;20040;-81
2021/12/09 03:19:30;;;;;;;14.40;4.50;;;;;;;;;;4231413;27;20048;-81
2021/12/09 03:21:34;;;;;;;7.80;4.40;;;;;;;;;;4268692;27;20110;-81
2021/12/09 03:23:36;;;;;;;12.82;4.68;;;;;;;;;;4235757;27;20062;-81
2021/12/09 03:25:37;;;;;;;18.38;4.75;;;;;;;;;;4234413;28;20103;-81
2021/12/09 03:27:40;;;;;;;13.65;4.93;;;;;;;;;;4233638;28;20444;-81
2021/12/09 03:29:41;;;;;;;11.27;4.50;;;;;;;;;;4251575;27;20363;-80
2021/12/09 03:31:45;;;;;;;10.77;4.25;;;;;;;;;;4252378;27;20058;-81
2021/12/09 03:33:46;;;;;;;11.20;4.72;;;;;;;;;;4233367;28;20052;-82
2021/12/09 03:35:56;;;;;;;11.35;4.63;;;;;;;;;;4251721;27;20047;-82
2021/12/09 03:37:57;;;;;;;10.82;4.53;;;;;;;;;;4252123;27;20070;-81
2021/12/09 03:39:58;;;;;;;13.35;4.93;;;;;;;;;;4253086;27;20039;-82
2021/12/09 03:42:01;;;;;;;12.23;4.32;;;;;;;;;;4250370;27;20079;-80
2021/12/09 03:44:03;;;;;;;11.80;4.75;;;;;;;;;;4268756;27;20081;-80
2021/12/09 03:46:06;;;;;;;15.98;5.25;;;;;;;;;;4247686;27;20055;-81
2021/12/09 03:48:11;;;;;;;12.57;5.15;;;;;;;;;;4233861;27;20044;-81
2021/12/09 03:50:17;;;;;;;9.30;4.85;;;;;;;;;;4233625;28;20059;-81
2021/12/09 03:52:20;;;;;;;13.65;5.60;;;;;;;;;;4216437;28;20173;-82
2021/12/09 03:54:22;;;;;;;10.65;4.93;;;;;;;;;;4233713;28;20068;-81
2021/12/09 03:56:24;;;;;;;12.45;5.45;;;;;;;;;;4233240;28;20052;-81
2021/12/09 03:58:27;;;;;;;15.27;4.80;;;;;;;;;;4233612;28;20051;-82
2021/12/09 04:00:30;;;;;;;16.13;4.65;;;;;;;;;;4235076;27;20032;-82
2021/12/09 04:02:32;;;;;;;16.60;5.43;;;;;;;;;;4249863;27;20410;-82
2021/12/09 04:04:34;;;;;;;16.02;4.53;;;;;;;;;;4262552;27;20039;-81
2021/12/09 04:06:36;;;;;;;12.23;4.90;;;;;;;;;;4233501;28;20126;-81
2021/12/09 04:08:38;;;;;;;14.48;5.32;;;;;;;;;;4251962;27;20050;-81
2021/12/09 04:10:39;;;;;;;12.10;4.85;;;;;;;;;;4233195;28;20634;-81
2021/12/09 04:12:41;;;;;;;15.75;4.65;;;;;;;;;;4216020;28;20126;-82
2021/12/09 04:14:43;;;;;;;12.15;4.85;;;;;;;;;;4251832;27;20109;-81
2021/12/09 04:16:45;;;;;;;12.05;4.18;;;;;;;;;;4232988;28;20129;-81
2021/12/09 04:18:47;;;;;;;11.70;4.63;;;;;;;;;;4233465;28;20118;-81
2021/12/09 04:20:49;;;;;;;12.57;5.13;;;;;;;;;;4245164;27;20110;-81
2021/12/09 04:22:50;;;;;;;11.90;5.20;;;;;;;;;;4241199;27;20044;-81
2021/12/09 04:24:53;;;;;;;16.25;5.15;;;;;;;;;;4232749;28;20078;-81
2021/12/09 04:26:56;;;;;;;11.55;4.63;;;;;;;;;;4232976;28;20047;-81
2021/12/09 04:28:58;;;;;;;11.13;5.47;;;;;;;;;;4215546;28;20043;-81
2021/12/09 04:31:00;;;;;;;13.45;4.80;;;;;;;;;;4216147;28;20059;-81
2021/12/09 04:33:01;;;;;;;10.30;5.32;;;;;;;;;;4214703;28;20056;-81
2021/12/09 04:35:02;;;;;;;10.43;4.43;;;;;;;;;;4251251;27;20039;-81
2021/12/09 04:37:03;;;;;;;11.13;4.85;;;;;;;;;;4216019;28;20040;-81
2021/12/09 04:39:06;;;;;;;9.18;4.22;;;;;;;;;;4233395;28;20043;-81
2021/12/09 04:41:07;;;;;;;13.02;5.00;;;;;;;;;;4251228;27;20051;-81
2021/12/09 04:43:09;;;;;;;12.18;4.80;;;;;;;;;;4251873;27;20092;-81
2021/12/09 04:45:11;;;;;;;15.38;4.70;;;;;;;;;;4233010;28;20081;-81
2021/12/09 04:47:15;;;;;;;15.38;5.30;;;;;;;;;;4251274;27;20054;-81
2021/12/09 04:49:16;;;;;;;11.43;4.80;;;;;;;;;;4233191;28;20515;-81
2021/12/09 04:51:18;;;;;;;12.90;6.13;;;;;;;;;;4232360;28;20050;-82
2021/12/09 04:53:20;;;;;;;13.55;5.53;;;;;;;;;;4250646;27;20043;-82
2021/12/09 04:55:22;;;;;;;11.68;5.28;;;;;;;;;;4250519;27;20126;-82
2021/12/09 04:57:25;;;;;;;11.70;5.47;;;;;;;;;;4232302;28;20102;-83
2021/12/09 04:59:27;;;;;;;12.15;5.13;;;;;;;;;;4232897;28;20056;-82
2021/12/09 05:01:28;;;;;;;19.15;5.50;;;;;;;;;;4232745;28;20048;-82
2021/12/09 05:03:30;;;;;;;13.93;5.18;;;;;;;;;;4215868;28;20077;-82
2021/12/09 05:05:45;;;;;;;10.85;5.53;;;;;;;;;;4232363;28;20052;-82
2021/12/09 05:07:48;;;;;;;12.77;5.05;;;;;;;;;;4232416;28;20051;-82
2021/12/09 05:09:50;;;;;;;10.98;5.50;;;;;;;;;;4231856;28;20493;-81
2021/12/09 05:11:51;;;;;;;11.10;4.80;;;;;;;;;;4250763;27;20487;-81
2021/12/09 05:13:55;;;;;;;13.50;5.13;;;;;;;;;;4232873;28;20079;-81
2021/12/09 05:15:57;;;;;;;7.53;4.45;;;;;;;;;;4232493;28;20052;-82
2021/12/09 05:17:59;;;;;;;10.95;4.95;;;;;;;;;;4250807;27;20039;-81
2021/12/09 05:20:01;;;;;;;11.20;4.95;;;;;;;;;;4220980;28;20380;-82
2021/12/09 05:22:03;;;;;;;14.95;5.65;;;;;;;;;;4247620;27;20051;-81
2021/12/09 05:24:05;;;;;;;13.13;5.32;;;;;;;;;;4232475;28;20103;-81
2021/12/09 05:26:07;;;;;;;19.27;6.00;;;;;;;;;;4215456;28;20071;-81
2021/12/09 05:28:11;;;;;;;12.07;5.32;;;;;;;;;;4250391;27;20059;-81
2021/12/09 05:30:13;;;;;;;14.13;5.22;;;;;;;;;;4231889;28;20055;-81
2021/12/09 05:32:16;;;;;;;15.02;5.43;;;;;;;;;;4231180;28;20064;-81
2021/12/09 05:34:18;;;;;;;12.55;5.32;;;;;;;;;;4254459;27;20074;-81
2021/12/09 05:36:19;;;;;;;11.50;4.10;;;;;;;;;;4249165;27;20054;-81
2021/12/09 05:38:21;;;;;;;12.07;4.45;;;;;;;;;;4249388;27;20055;-81
2021/12/09 05:40:23;;;;;;;14.27;5.20;;;;;;;;;;4227105;28;20058;-81
2021/12/09 05:42:25;;;;;;;13.23;4.60;;;;;;;;;;4215419;28;20551;-82
2021/12/09 05:44:26;;;;;;;11.95;5.10;;;;;;;;;;4231259;28;20044;-80
2021/12/09 05:46:29;;;;;;;11.35;5.20;;;;;;;;;;4232017;28;20157;-82
2021/12/09 05:48:33;;;;;;;18.58;5.00;;;;;;;;;;4215007;28;20048;-81
2021/12/09 05:50:34;;;;;;;13.18;5.22;;;;;;;;;;4220646;28;20052;-82
2021/12/09 05:52:36;;;;;;;14.05;5.20;;;;;;;;;;4266575;27;20042;-82
2021/12/09 05:54:38;;;;;;;15.77;5.28;;;;;;;;;;4234172;27;20157;-81
2021/12/09 05:56:41;;;;;;;13.20;4.32;;;;;;;;;;4256825;27;20158;-81
2021/12/09 05:58:42;;;;;;;13.00;4.85;;;;;;;;;;4241520;27;20438;-82
2021/12/09 06:00:43;;;;;;;13.05;5.00;;;;;;;;;;4250767;27;20046;-81
2021/12/09 06:02:44;;;;;;;13.25;5.30;;;;;;;;;;4251062;27;20047;-81
2021/12/09 06:04:47;;;;;;;10.80;5.38;;;;;;;;;;4215047;28;20055;-81
2021/12/09 06:06:51;;;;;;;14.45;4.75;;;;;;;;;;4250306;27;20054;-81
2021/12/09 06:08:53;;;;;;;12.45;4.75;;;;;;;;;;4250340;27;20497;-81
2021/12/09 06:10:55;;;;;;;11.52;5.65;;;;;;;;;;4250234;27;20180;-81
2021/12/09 06:12:56;;;;;;;12.65;4.82;;;;;;;;;;4214410;28;20533;-81
2021/12/09 06:14:58;;;;;;;12.73;5.68;;;;;;;;;;4214864;28;20040;-81
2021/12/09 06:17:00;;;;;;;11.18;5.07;;;;;;;;;;4231301;28;20039;-81
2021/12/09 06:19:02;;;;;;;13.48;5.13;;;;;;;;;;4231973;28;20407;-81
2021/12/09 06:21:06;;;;;;;11.93;4.85;;;;;;;;;;4264029;27;20054;-80
2021/12/09 06:23:07;;;;;;;12.82;5.65;;;;;;;;;;4237248;28;20058;-81
2021/12/09 06:25:09;;;;;;;17.73;5.45;;;;;;;;;;4233321;28;20075;-81
2021/12/09 06:27:11;;;;;;;17.83;5.13;;;;;;;;;;4216121;28;20105;-82
2021/12/09 06:29:13;;;;;;;14.40;5.90;;;;;;;;;;4262006;27;20410;-81
2021/12/09 06:31:14;;;;;;;13.32;4.95;;;;;;;;;;4231341;28;20056;-81
2021/12/09 06:33:16;;;;;;;9.02;4.75;;;;;;;;;;4267690;27;20076;-81
2021/12/09 06:35:19;;;;;;;15.27;6.28;;;;;;;;;;4249103;28;20078;-81
2021/12/09 06:37:24;;;;;;;10.88;5.25;;;;;;;;;;4248559;28;20126;-81
2021/12/09 06:39:26;;;;;;;14.00;5.28;;;;;;;;;;4248934;28;20095;-81
2021/12/09 06:41:28;;;;;;;11.80;5.80;;;;;;;;;;4252905;27;20118;-81
2021/12/09 06:43:33;;;;;;;16.40;4.82;;;;;;;;;;4255161;27;20048;-81
2021/12/09 06:45:35;;;;;;;11.60;4.95;;;;;;;;;;4248593;28;20074;-81
2021/12/09 06:47:38;;;;;;;13.95;5.85;;;;;;;;;;4251473;27;20090;-81
2021/12/09 06:49:39;;;;;;;12.43;5.07;;;;;;;;;;4231486;28;20051;-82
2021/12/09 06:51:42;;;;;;;11.05;5.22;;;;;;;;;;4231932;28;20128;-81
2021/12/09 06:53:44;;;;;;;11.70;5.55;;;;;;;;;;4250359;27;20043;-81
2021/12/09 06:55:46;;;;;;;13.27;5.68;;;;;;;;;;4251997;27;20043;-81
2021/12/09 06:57:49;;;;;;;10.88;5.50;;;;;;;;;;4253722;27;20059;-81
2021/12/09 06:59:51;;;;;;;15.15;5.10;;;;;;;;;;4253595;27;20052;-81
2021/12/09 07:01:52;;;;;;;10.32;5.07;;;;;;;;;;4253461;27;20118;-81
2021/12/09 07:03:54;;;;;;;16.73;5.93;;;;;;;;;;4218025;28;20064;-81
2021/12/09 07:05:56;;;;;;;15.77;6.00;;;;;;;;;;4243417;27;20508;-81
2021/12/09 07:07:58;;;;;;;14.45;4.97;;;;;;;;;;4252990;27;20051;-80
2021/12/09 07:10:00;;;;;;;13.18;4.47;;;;;;;;;;4252867;27;20066;-81
2021/12/09 07:12:01;;;;;;;14.50;5.05;;;;;;;;;;4272358;27;20043;-80
2021/12/09 07:14:03;;;;;;;18.33;5.63;;;;;;;;;;4271284;27;20082;-80
2021/12/09 07:16:07;;;;;;;16.95;5.53;;;;;;;;;;4239809;28;20082;-79
2021/12/09 07:18:10;;;;;;;14.48;5.22;;;;;;;;;;4266793;27;20470;-80
2021/12/09 07:20:14;;;;;;;15.35;5.65;;;;;;;;;;4266347;27;20503;-82
2021/12/09 07:22:15;;;;;;;17.50;6.10;;;;;;;;;;4273077;27;20039;-80
2021/12/09 07:24:22;;;;;;;16.02;6.40;;;;;;;;;;4276580;27;20050;-80
2021/12/09 07:26:26;;;;;;;12.52;5.53;;;;;;;;;;4236528;28;20093;-81
2021/12/09 07:28:27;;;;;;;13.93;5.82;;;;;;;;;;4230810;28;20055;-82
2021/12/09 07:30:28;;;;;;;15.60;5.80;;;;;;;;;;4253933;27;20063;-81
2021/12/09 07:32:32;;;;;;;15.13;6.13;;;;;;;;;;4253205;27;20134;-81
2021/12/09 07:34:33;;;;;;;18.75;6.60;;;;;;;;;;4235783;28;20047;-81
2021/12/09 07:36:35;;;;;;;15.35;6.40;;;;;;;;;;4253785;27;20075;-81
2021/12/09 07:38:37;;;;;;;23.92;6.20;;;;;;;;;;4235313;28;20091;-81
2021/12/09 07:40:39;;;;;;;12.82;5.82;;;;;;;;;;4234768;28;20531;-82
2021/12/09 07:42:46;;;;;;;13.93;5.40;;;;;;;;;;4235364;28;20055;-81
2021/12/09 07:44:47;;;;;;;20.60;6.68;;;;;;;;;;4235075;28;20055;-81
2021/12/09 07:46:50;;;;;;;17.02;5.25;;;;;;;;;;4252846;27;20172;-81
2021/12/09 07:48:52;;;;;;;10.80;5.28;;;;;;;;;;4234876;28;20131;-81
2021/12/09 07:50:53;;;;;;;14.15;5.80;;;;;;;;;;4234811;28;20588;-82
2021/12/09 07:52:55;;;;;;;18.05;6.13;;;;;;;;;;4234315;28;20468;-81
2021/12/09 07:54:57;;;;;;;14.35;5.78;;;;;;;;;;4234946;28;20044;-81
2021/12/09 07:56:59;;;;;;;19.13;6.00;;;;;;;;;;4234567;28;20050;-82
2021/12/09 07:59:02;;;;;;;14.25;5.68;;;;;;;;;;4262644;27;20049;-82
2021/12/09 08:01:05;;;;;;;17.90;6.20;;;;;;;;;;4269270;27;20078;-80
2021/12/09 08:03:06;;;;;;;19.65;5.90;;;;;;;;;;4234130;28;20573;-82
2021/12/09 08:05:07;;;;;;;16.63;6.30;;;;;;;;;;4234974;28;20040;-82
2021/12/09 08:07:09;;;;;;;18.52;6.15;;;;;;;;;;4251171;27;20039;-81
2021/12/09 08:09:11;;;;;;;23.20;5.50;;;;;;;;;;4251744;27;20090;-81
2021/12/09 08:11:14;;;;;;;9.93;5.43;;;;;;;;;;4269887;27;20125;-81
2021/12/09 08:13:24;;;;;;;15.55;5.20;;;;;;;;;;4251088;27;20411;-81
2021/12/09 08:15:26;;;;;;;9.93;5.03;;;;;;;;;;4233778;28;20442;-81
2021/12/09 08:19:35;;;;;;;14.95;5.88;;;;;;;;;;4264683;27;20086;-81
2021/12/09 08:21:38;;;;;;;15.32;5.80;;;;;;;;;;4252422;27;20150;-81
2021/12/09 08:23:39;;;;;;;16.38;6.20;;;;;;;;;;4216566;28;20048;-80
2021/12/09 08:25:40;;;;;;;16.05;6.13;;;;;;;;;;4216306;28;20048;-80
2021/12/09 08:27:45;;;;;;;16.75;6.20;;;;;;;;;;4233429;28;20514;-82
2021/12/09 08:29:49;;;;;;;15.82;5.53;;;;;;;;;;4233829;28;20078;-81
2021/12/09 08:31:50;;;;;;;19.33;5.85;;;;;;;;;;4251954;27;20487;-81
2021/12/09 08:33:51;;;;;;;13.13;5.88;;;;;;;;;;4233260;27;20511;-80
2021/12/09 08:35:54;;;;;;;13.20;5.60;;;;;;;;;;4248676;27;20058;-80
2021/12/09 08:37:58;;;;;;;19.23;6.15;;;;;;;;;;4250067;27;20176;-80
2021/12/09 08:39:59;;;;;;;15.38;5.38;;;;;;;;;;4233340;28;20062;-80
2021/12/09 08:42:00;;;;;;;11.30;5.65;;;;;;;;;;4268127;27;20090;-80
2021/12/09 08:44:01;;;;;;;14.80;6.85;;;;;;;;;;4250115;27;20077;-80
2021/12/09 08:46:03;;;;;;;11.77;5.70;;;;;;;;;;4247410;27;20632;-80
2021/12/09 08:48:06;;;;;;;14.00;5.53;;;;;;;;;;4232221;28;20153;-80
2021/12/09 08:50:08;;;;;;;11.77;5.05;;;;;;;;;;4215598;28;20056;-81
2021/12/09 08:52:16;;;;;;;14.52;5.90;;;;;;;;;;4250956;27;20864;-80
2021/12/09 08:54:17;;;;;;;14.98;5.38;;;;;;;;;;4248857;27;20062;-80
2021/12/09 08:56:19;;;;;;;10.20;4.93;;;;;;;;;;4231604;28;20047;-80
2021/12/09 08:58:22;;;;;;;15.63;5.57;;;;;;;;;;4267237;27;20039;-80
2021/12/09 09:00:26;;;;;;;12.73;4.47;;;;;;;;;;4265991;27;20055;-80
2021/12/09 09:02:29;;;;;;;8.27;4.70;;;;;;;;;;4266918;27;20043;-80
2021/12/09 09:04:31;;;;;;;9.90;4.05;;;;;;;;;;4248208;27;20096;-81
2021/12/09 09:06:34;;;;;;;8.27;4.38;;;;;;;;;;4248513;27;20418;-80
2021/12/09 09:08:35;;;;;;;12.45;4.70;;;;;;;;;;4248534;27;20043;-81
2021/12/09 09:10:40;;;;;;;9.30;4.75;;;;;;;;;;4267003;27;20175;-81
2021/12/09 09:12:41;;;;;;;7.25;3.80;;;;;;;;;;4266429;27;20038;-83
2021/12/09 09:14:42;;;;;;;8.82;4.07;;;;;;;;;;4259699;27;20051;-82
2021/12/09 09:16:43;;;;;;;13.82;4.43;;;;;;;;;;4238601;27;20082;-81
2021/12/09 09:18:45;;;;;;;13.07;4.45;;;;;;;;;;4228064;28;20051;-81
2021/12/09 09:20:47;;;;;;;11.07;4.90;;;;;;;;;;4266508;27;20043;-81
2021/12/09 09:22:48;;;;;;;10.30;3.53;;;;;;;;;;4247621;27;20054;-81
2021/12/09 09:24:50;;;;;;;12.30;4.35;;;;;;;;;;4218657;28;20118;-80
2021/12/09 09:26:52;;;;;;;9.57;3.50;;;;;;;;;;4214226;28;20052;-81
2021/12/09 09:28:54;;;;;;;11.98;4.28;;;;;;;;;;4239985;27;20078;-81
2021/12/09 09:30:57;;;;;;;9.07;3.90;;;;;;;;;;4266064;27;20454;-81
2021/12/09 09:32:58;;;;;;;7.68;3.50;;;;;;;;;;4257484;27;20160;-80
2021/12/09 09:34:59;;;;;;;13.15;4.55;;;;;;;;;;4264405;27;20070;-81
2021/12/09 09:37:00;;;;;;;8.50;4.13;;;;;;;;;;4236495;27;20079;-80
2021/12/09 09:39:16;;;;;;;7.82;3.55;;;;;;;;;;4262520;27;20046;-81
2021/12/09 09:41:17;;;;;;;8.70;3.30;;;;;;;;;;4235566;27;20100;-80
2021/12/09 09:45:47;;;;;;;6.95;3.03;;;;;;;;;;4217172;27;20043;-81
2021/12/09 09:47:49;;;;;;;8.93;3.42;;;;;;;;;;4259746;27;20035;-81
2021/12/09 09:49:51;;;;;;;5.68;3.55;;;;;;;;;;4231144;27;20054;-81
2021/12/09 09:51:52;;;;;;;11.30;3.17;;;;;;;;;;4229900;28;20079;-81
2021/12/09 09:53:53;;;;;;;9.52;3.47;;;;;;;;;;4255241;27;20050;-81
2021/12/09 09:55:56;;;;;;;8.35;3.35;;;;;;;;;;4265233;27;20039;-81
2021/12/09 09:57:58;;;;;;;10.02;3.45;;;;;;;;;;4245258;27;20047;-81
2021/12/09 09:59:59;;;;;;;13.38;3.42;;;;;;;;;;4229940;28;20052;-81
2021/12/09 10:02:00;;;;;;;7.00;3.20;;;;;;;;;;4247850;27;20168;-81
2021/12/09 10:04:14;;;;;;;7.90;3.40;;;;;;;;;;4235975;27;20039;-81
2021/12/09 10:06:16;;;;;;;6.03;2.85;;;;;;;;;;4248072;27;20047;-82
2021/12/09 10:08:18;;;;;;;7.03;3.70;;;;;;;;;;4213076;28;20070;-80
2021/12/09 10:10:20;;;;;;;8.73;2.90;;;;;;;;;;4246742;27;20050;-81
2021/12/09 10:12:22;;;;;;;9.55;3.47;;;;;;;;;;4241144;27;20082;-82
2021/12/09 10:14:26;;;;;;;9.43;3.08;;;;;;;;;;4264966;27;20047;-81
2021/12/09 10:16:27;;;;;;;9.70;2.80;;;;;;;;;;4224164;28;20511;-81
2021/12/09 10:18:47;;;;;;;10.10;4.05;;;;;;;;;;4212740;28;20109;-81
2021/12/09 10:20:53;;;;;;;6.55;3.15;;;;;;;;;;4214637;28;20048;-82
2021/12/09 10:22:57;;;;;;;12.05;3.00;;;;;;;;;;4254426;27;20092;-82
2021/12/09 10:24:59;;;;;;;6.25;2.95;;;;;;;;;;4246133;28;20130;-81
2021/12/09 10:27:00;;;;;;;12.48;3.40;;;;;;;;;;4263773;27;20050;-82
2021/12/09 10:29:13;;;;;;;10.77;3.47;;;;;;;;;;4237528;27;20047;-81
2021/12/09 10:31:16;;;;;;;9.75;2.95;;;;;;;;;;4232402;28;20051;-81
2021/12/09 10:33:23;;;;;;;6.88;3.13;;;;;;;;;;4248270;27;20055;-81
2021/12/09 10:35:24;;;;;;;8.57;3.83;;;;;;;;;;4245252;27;20039;-82
2021/12/09 10:37:28;;;;;;;8.18;3.35;;;;;;;;;;4239976;27;20046;-82
2021/12/09 10:39:34;;;;;;;10.60;3.13;;;;;;;;;;4238004;27;20043;-82
2021/12/09 10:41:35;;;;;;;7.88;3.53;;;;;;;;;;4248348;27;20043;-82
2021/12/09 10:43:48;;;;;;;9.05;3.10;;;;;;;;;;4248817;27;20042;-82
2021/12/09 10:45:52;;;;;;;8.88;2.80;;;;;;;;;;4249448;27;20501;-82
2021/12/09 10:47:58;;;;;;;11.93;3.30;;;;;;;;;;4232617;28;20395;-82
2021/12/09 10:50:08;;;;;;;10.05;3.22;;;;;;;;;;4231780;28;20480;-81
2021/12/09 10:52:38;;;;;;;7.60;3.00;;;;;;;;;;4244350;27;20039;-80
2021/12/09 10:54:39;;;;;;;12.05;3.05;;;;;;;;;;4248636;27;20061;-81
2021/12/09 10:56:40;;;;;;;12.82;3.45;;;;;;;;;;4249031;27;20459;-81
2021/12/09 10:58:42;;;;;;;7.70;4.47;;;;;;;;;;4242840;27;20044;-81
2021/12/09 11:00:46;;;;;;;7.63;3.88;;;;;;;;;;4229177;28;20123;-80
2021/12/09 11:02:58;;;;;;;8.95;3.75;;;;;;;;;;4249904;27;20042;-81
2021/12/09 11:05:06;;;;;;;9.98;2.97;;;;;;;;;;4249981;27;20043;-80
2021/12/09 11:07:20;;;;;;;12.88;3.55;;;;;;;;;;4249307;27;20043;-84
2021/12/09 11:09:24;;;;;;;7.05;3.25;;;;;;;;;;4247024;27;20051;-80
2021/12/09 11:11:26;;;;;;;7.20;2.95;;;;;;;;;;4238881;27;20552;-81
2021/12/09 11:13:35;;;;;;;10.82;3.50;;;;;;;;;;4246297;27;20848;-80
2021/12/09 11:15:46;;;;;;;9.93;3.55;;;;;;;;;;4249901;27;20051;-81
2021/12/09 11:17:50;;;;;;;5.55;2.92;;;;;;;;;;4251184;27;20068;-80
2021/12/09 11:19:55;;;;;;;10.27;3.88;;;;;;;;;;4251769;27;20039;-81
2021/12/09 11:22:02;;;;;;;8.05;3.67;;;;;;;;;;4247672;27;20043;-80
2021/12/09 11:24:17;;;;;;;8.25;3.72;;;;;;;;;;4250801;27;20058;-80
2021/12/09 11:26:24;;;;;;;12.25;4.68;;;;;;;;;;4232001;28;20056;-80
2021/12/09 11:28:26;;;;;;;16.10;4.93;;;;;;;;;;4232306;28;20048;-80
2021/12/09 11:30:31;;;;;;;11.77;3.67;;;;;;;;;;4231192;28;20058;-81
2021/12/09 11:34:38;;;;;;;9.10;3.65;;;;;;;;;;4248548;27;20043;-81
2021/12/09 11:36:42;;;;;;;16.05;5.38;;;;;;;;;;4231988;28;20507;-80
2021/12/09 11:39:06;;;;;;;7.32;2.97;;;;;;;;;;4248538;27;20046;-80
2021/12/09 11:41:27;;;;;;;10.18;4.15;;;;;;;;;;4248045;27;20080;-80
2021/12/09 11:43:29;;;;;;;6.93;3.15;;;;;;;;;;4248480;27;20096;-80
2021/12/09 11:45:39;;;;;;;14.68;4.13;;;;;;;;;;4248520;27;20497;-81
2021/12/09 11:47:42;;;;;;;8.65;3.90;;;;;;;;;;4249513;27;20459;-80
2021/12/09 11:49:44;;;;;;;10.75;4.15;;;;;;;;;;4249227;27;20039;-81
2021/12/09 11:51:45;;;;;;;9.10;3.58;;;;;;;;;;4250621;27;20047;-82
2021/12/09 11:53:53;;;;;;;9.13;3.65;;;;;;;;;;4249287;27;20528;-82
2021/12/09 11:56:10;;;;;;;8.32;4.00;;;;;;;;;;4250594;27;20046;-82
2021/12/09 12:14:44;;;;;;;13.40;4.88;;;;;;;;;;4233407;28;20043;-82
2021/12/09 12:18:56;;;;;;;13.10;4.25;;;;;;;;;;4233317;28;20059;-82
2021/12/09 12:23:13;;;;;;;13.52;4.50;;;;;;;;;;4233226;28;20487;-82
2021/12/09 12:25:38;;;;;;;14.25;4.85;;;;;;;;;;4231480;28;20054;-82
2021/12/09 12:28:06;;;;;;;12.32;4.25;;;;;;;;;;4233400;28;20047;-82
2021/12/09 12:37:18;;;;;;;18.13;5.88;;;;;;;;;;4231937;28;20047;-82
2021/12/09 12:39:28;;;;;;;13.25;5.32;;;;;;;;;;4215131;28;20059;-82
2021/12/09 12:41:30;;;;;;;10.27;4.85;;;;;;;;;;4216276;28;20096;-81
2021/12/09 12:43:56;;;;;;;15.82;5.25;;;;;;;;;;4231168;28;20103;-81
2021/12/09 12:46:11;;;;;;;11.40;4.70;;;;;;;;;;4213151;28;20052;-82